createdAt,value
2017-07-19T00:00:23.659Z,0
2017-07-19T00:01:23.700Z,0
2017-07-19T00:02:23.416Z,0
2017-07-19T00:03:23.307Z,0
2017-07-19T00:04:23.286Z,0
2017-07-19T00:05:23.266Z,0
2017-07-19T00:06:23.551Z,0
2017-07-19T00:07:23.544Z,0
2017-07-19T00:08:23.511Z,0
2017-07-19T00:09:23.197Z,0
2017-07-19T00:10:22.882Z,0
2017-07-19T00:11:23.584Z,0
2017-07-19T00:12:23.136Z,0
2017-07-19T00:13:23.439Z,0
2017-07-19T00:14:23.104Z,0
2017-07-19T00:15:23.379Z,0
2017-07-19T00:16:23.359Z,0
2017-07-19T00:17:23.040Z,0
2017-07-19T00:18:23.023Z,0
2017-07-19T00:19:23.015Z,0
2017-07-19T00:20:22.996Z,0
2017-07-19T00:21:22.985Z,0
2017-07-19T00:22:22.966Z,0
2017-07-19T00:23:23.231Z,0
2017-07-19T00:24:22.615Z,0
2017-07-19T00:25:22.900Z,0
2017-07-19T00:26:23.178Z,0
2017-07-19T00:27:22.865Z,0
2017-07-19T00:28:23.137Z,0
2017-07-19T00:29:22.524Z,0
2017-07-19T00:30:22.804Z,0
2017-07-19T00:31:22.787Z,0
2017-07-19T00:32:22.462Z,0
2017-07-19T00:33:23.039Z,0
2017-07-19T00:34:22.731Z,0
2017-07-19T00:35:22.714Z,0
2017-07-19T00:36:22.694Z,0
2017-07-19T00:37:22.681Z,0
2017-07-19T00:38:22.656Z,0
2017-07-19T00:39:22.645Z,0
2017-07-19T00:40:22.619Z,0
2017-07-19T00:41:22.886Z,0
2017-07-19T00:42:22.871Z,0
2017-07-19T00:43:22.558Z,0
2017-07-19T00:44:22.832Z,0
2017-07-19T00:45:22.811Z,0
2017-07-19T00:46:22.796Z,0
2017-07-19T00:47:22.502Z,0
2017-07-19T00:48:22.753Z,0
2017-07-19T00:49:22.440Z,0
2017-07-19T00:50:22.721Z,0
2017-07-19T00:51:22.702Z,0
2017-07-19T00:52:22.683Z,0
2017-07-19T00:53:22.659Z,0
2017-07-19T00:54:22.346Z,0
2017-07-19T00:55:22.359Z,0
2017-07-19T00:56:22.609Z,0
2017-07-19T00:57:22.606Z,0
2017-07-19T00:58:22.271Z,0
2017-07-19T00:59:22.560Z,0
2017-07-19T01:00:22.531Z,0
2017-07-19T01:01:22.213Z,0
2017-07-19T01:02:22.489Z,0
2017-07-19T01:03:22.465Z,0
2017-07-19T01:04:22.156Z,0
2017-07-19T01:05:22.149Z,0
2017-07-19T01:06:22.414Z,0
2017-07-19T01:07:22.390Z,0
2017-07-19T01:08:22.381Z,0
2017-07-19T01:09:22.354Z,0
2017-07-19T01:10:22.346Z,0
2017-07-19T01:11:22.321Z,0
2017-07-19T01:12:22.299Z,0
2017-07-19T01:13:22.296Z,0
2017-07-19T01:14:22.261Z,0
2017-07-19T01:15:22.236Z,0
2017-07-19T01:16:22.222Z,0
2017-07-19T01:17:22.217Z,0
2017-07-19T01:18:22.182Z,0
2017-07-19T01:19:22.170Z,0
2017-07-19T01:20:21.845Z,0
2017-07-19T01:21:22.003Z,0
2017-07-19T01:22:22.100Z,0
2017-07-19T01:23:22.087Z,0
2017-07-19T01:24:22.076Z,0
2017-07-19T01:25:22.051Z,0
2017-07-19T01:26:22.030Z,0
2017-07-19T01:27:22.008Z,0
2017-07-19T01:28:22.013Z,0
2017-07-19T01:29:21.974Z,0
2017-07-19T01:30:21.948Z,0
2017-07-19T01:31:21.936Z,0
2017-07-19T01:32:21.911Z,0
2017-07-19T01:33:21.890Z,0
2017-07-19T01:34:21.881Z,0
2017-07-19T01:35:21.849Z,0
2017-07-19T01:36:21.883Z,0
2017-07-19T01:37:21.812Z,0
2017-07-19T01:38:21.794Z,0
2017-07-19T01:39:21.776Z,0
2017-07-19T01:40:21.755Z,0
2017-07-19T01:41:21.737Z,0
2017-07-19T01:42:21.715Z,0
2017-07-19T01:43:21.763Z,0
2017-07-19T01:44:21.684Z,0
2017-07-19T01:45:21.064Z,0
2017-07-19T01:46:21.639Z,0
2017-07-19T01:47:21.616Z,0
2017-07-19T01:48:21.601Z,0
2017-07-19T01:49:21.579Z,0
2017-07-19T01:50:21.260Z,0
2017-07-19T01:51:21.250Z,0
2017-07-19T01:52:21.528Z,0
2017-07-19T01:53:21.530Z,0
2017-07-19T01:54:21.482Z,0
2017-07-19T01:55:21.474Z,0
2017-07-19T01:56:21.169Z,0
2017-07-19T01:57:21.425Z,0
2017-07-19T01:58:21.408Z,0
2017-07-19T01:59:21.094Z,0
2017-07-19T02:00:21.068Z,0
2017-07-19T02:01:20.757Z,0
2017-07-19T02:02:20.738Z,0
2017-07-19T02:03:21.301Z,0
2017-07-19T02:04:20.990Z,0
2017-07-19T02:05:20.686Z,0
2017-07-19T02:06:20.956Z,0
2017-07-19T02:07:21.225Z,0
2017-07-19T02:08:20.615Z,0
2017-07-19T02:09:21.194Z,0
2017-07-19T02:10:20.577Z,0
2017-07-19T02:11:20.849Z,0
2017-07-19T02:12:20.842Z,0
2017-07-19T02:13:20.806Z,0
2017-07-19T02:14:20.792Z,0
2017-07-19T02:15:20.773Z,0
2017-07-19T02:16:20.756Z,0
2017-07-19T02:17:20.741Z,0
2017-07-19T02:18:20.715Z,0
2017-07-19T02:19:20.421Z,0
2017-07-19T02:20:20.674Z,0
2017-07-19T02:21:20.951Z,0
2017-07-19T02:22:20.639Z,0
2017-07-19T02:23:20.615Z,0
2017-07-19T02:24:20.595Z,0
2017-07-19T02:25:20.573Z,0
2017-07-19T02:26:20.847Z,0
2017-07-19T02:27:20.536Z,0
2017-07-19T02:28:20.518Z,0
2017-07-19T02:29:20.500Z,0
2017-07-19T02:30:20.523Z,0
2017-07-19T02:31:20.458Z,0
2017-07-19T02:32:20.735Z,0
2017-07-19T02:33:20.724Z,0
2017-07-19T02:34:20.398Z,0
2017-07-19T02:35:20.669Z,0
2017-07-19T02:36:20.675Z,0
2017-07-19T02:37:20.662Z,0
2017-07-19T02:38:20.614Z,0
2017-07-19T02:39:20.624Z,0
2017-07-19T02:40:20.647Z,0
2017-07-19T02:41:20.553Z,0
2017-07-19T02:42:20.536Z,0
2017-07-19T02:43:20.520Z,0
2017-07-19T02:44:20.204Z,0
2017-07-19T02:45:20.185Z,0
2017-07-19T02:46:20.477Z,0
2017-07-19T02:47:20.446Z,0
2017-07-19T02:48:20.415Z,0
2017-07-19T02:49:20.398Z,0
2017-07-19T02:50:20.379Z,0
2017-07-19T02:51:20.057Z,0
2017-07-19T02:52:20.335Z,0
2017-07-19T02:53:20.317Z,0
2017-07-19T02:54:20.106Z,0
2017-07-19T02:55:20.276Z,0
2017-07-19T02:56:20.256Z,0
2017-07-19T02:57:20.235Z,0
2017-07-19T02:58:20.218Z,0
2017-07-19T02:59:20.192Z,0
2017-07-19T03:00:19.876Z,0
2017-07-19T03:01:19.575Z,0
2017-07-19T03:02:20.147Z,0
2017-07-19T03:03:19.822Z,0
2017-07-19T03:04:19.801Z,0
2017-07-19T03:05:20.080Z,0
2017-07-19T03:06:19.754Z,0
2017-07-19T03:07:19.735Z,0
2017-07-19T03:08:20.018Z,0
2017-07-19T03:09:19.398Z,0
2017-07-19T03:10:19.971Z,0
2017-07-19T03:11:19.950Z,0
2017-07-19T03:12:19.632Z,0
2017-07-19T03:13:20.015Z,0
2017-07-19T03:14:19.904Z,0
2017-07-19T03:15:19.294Z,0
2017-07-19T03:16:19.855Z,0
2017-07-19T03:17:19.544Z,0
2017-07-19T03:18:19.818Z,0
2017-07-19T03:19:19.801Z,5
2017-07-19T03:20:19.474Z,5
2017-07-19T03:21:19.558Z,5
2017-07-19T03:22:19.732Z,5
2017-07-19T03:23:19.719Z,5
2017-07-19T03:24:19.693Z,5
2017-07-19T03:25:19.682Z,10
2017-07-19T03:26:19.663Z,10
2017-07-19T03:27:19.688Z,10
2017-07-19T03:28:19.617Z,10
2017-07-19T03:29:19.600Z,10
2017-07-19T03:30:19.568Z,10
2017-07-19T03:31:19.340Z,15
2017-07-19T03:32:19.556Z,15
2017-07-19T03:33:19.504Z,15
2017-07-19T03:34:19.495Z,15
2017-07-19T03:35:19.469Z,20
2017-07-19T03:36:19.464Z,20
2017-07-19T03:37:18.847Z,20
2017-07-19T03:38:19.154Z,25
2017-07-19T03:39:19.098Z,25
2017-07-19T03:40:19.379Z,25
2017-07-19T03:41:19.361Z,30
2017-07-19T03:42:19.340Z,30
2017-07-19T03:43:19.310Z,30
2017-07-19T03:44:18.996Z,35
2017-07-19T03:45:18.975Z,35
2017-07-19T03:46:18.962Z,40
2017-07-19T03:47:18.927Z,40
2017-07-19T03:48:18.915Z,45
2017-07-19T03:49:18.605Z,45
2017-07-19T03:50:18.923Z,45
2017-07-19T03:51:19.156Z,50
2017-07-19T03:52:18.833Z,50
2017-07-19T03:53:18.922Z,55
2017-07-19T03:54:19.116Z,60
2017-07-19T03:55:18.766Z,60
2017-07-19T03:56:19.056Z,65
2017-07-19T03:57:19.039Z,70
2017-07-19T03:58:19.005Z,75
2017-07-19T03:59:18.979Z,75
2017-07-19T04:00:18.972Z,80
2017-07-19T04:01:18.971Z,80
2017-07-19T04:02:18.928Z,85
2017-07-19T04:03:18.904Z,90
2017-07-19T04:04:18.895Z,90
2017-07-19T04:05:18.862Z,95
2017-07-19T04:06:18.849Z,100
2017-07-19T04:07:18.830Z,100
2017-07-19T04:08:18.808Z,100
2017-07-19T04:09:18.498Z,105
2017-07-19T04:10:18.768Z,105
2017-07-19T04:11:18.462Z,110
2017-07-19T04:12:18.431Z,115
2017-07-19T04:13:18.712Z,115
2017-07-19T04:14:18.690Z,120
2017-07-19T04:15:18.676Z,130
2017-07-19T04:16:18.347Z,130
2017-07-19T04:17:18.635Z,130
2017-07-19T04:18:18.613Z,135
2017-07-19T04:19:18.291Z,140
2017-07-19T04:20:18.570Z,140
2017-07-19T04:21:18.551Z,145
2017-07-19T04:22:18.643Z,150
2017-07-19T04:23:18.508Z,150
2017-07-19T04:24:18.485Z,155
2017-07-19T04:25:18.188Z,160
2017-07-19T04:26:18.445Z,160
2017-07-19T04:27:18.423Z,165
2017-07-19T04:28:18.409Z,170
2017-07-19T04:29:18.392Z,175
2017-07-19T04:30:18.065Z,175
2017-07-19T04:31:18.357Z,180
2017-07-19T04:32:18.041Z,185
2017-07-19T04:33:18.319Z,190
2017-07-19T04:34:18.022Z,195
2017-07-19T04:35:17.986Z,200
2017-07-19T04:36:17.954Z,205
2017-07-19T04:37:17.637Z,210
2017-07-19T04:38:18.248Z,215
2017-07-19T04:39:17.896Z,220
2017-07-19T04:40:18.176Z,225
2017-07-19T04:41:18.149Z,230
2017-07-19T04:42:18.143Z,235
2017-07-19T04:43:18.113Z,240
2017-07-19T04:44:17.807Z,245
2017-07-19T04:45:18.068Z,255
2017-07-19T04:46:18.053Z,250
2017-07-19T04:47:17.455Z,255
2017-07-19T04:48:18.063Z,260
2017-07-19T04:49:17.998Z,260
2017-07-19T04:50:17.985Z,260
2017-07-19T04:51:17.364Z,270
2017-07-19T04:52:17.951Z,265
2017-07-19T04:53:17.922Z,270
2017-07-19T04:54:17.904Z,275
2017-07-19T04:55:17.883Z,280
2017-07-19T04:56:17.881Z,285
2017-07-19T04:57:17.540Z,285
2017-07-19T04:58:17.527Z,290
2017-07-19T04:59:17.804Z,300
2017-07-19T05:00:17.791Z,305
2017-07-19T05:01:17.474Z,305
2017-07-19T05:02:17.746Z,310
2017-07-19T05:03:17.749Z,315
2017-07-19T05:04:17.724Z,320
2017-07-19T05:05:17.401Z,320
2017-07-19T05:06:17.677Z,330
2017-07-19T05:07:17.651Z,340
2017-07-19T05:08:17.639Z,350
2017-07-19T05:09:17.317Z,355
2017-07-19T05:10:17.593Z,360
2017-07-19T05:11:16.985Z,365
2017-07-19T05:12:17.559Z,370
2017-07-19T05:13:17.543Z,380
2017-07-19T05:14:17.526Z,390
2017-07-19T05:15:16.914Z,400
2017-07-19T05:16:17.487Z,410
2017-07-19T05:17:17.475Z,420
2017-07-19T05:18:17.449Z,425
2017-07-19T05:19:17.430Z,435
2017-07-19T05:20:16.822Z,445
2017-07-19T05:21:17.177Z,450
2017-07-19T05:22:17.146Z,455
2017-07-19T05:23:17.358Z,460
2017-07-19T05:24:17.229Z,470
2017-07-19T05:25:16.730Z,475
2017-07-19T05:26:16.708Z,480
2017-07-19T05:27:16.694Z,485
2017-07-19T05:28:17.270Z,490
2017-07-19T05:29:17.251Z,490
2017-07-19T05:30:17.235Z,495
2017-07-19T05:31:16.930Z,495
2017-07-19T05:32:17.265Z,510
2017-07-19T05:33:16.933Z,505
2017-07-19T05:34:16.878Z,505
2017-07-19T05:35:17.149Z,515
2017-07-19T05:36:16.839Z,515
2017-07-19T05:37:17.109Z,490
2017-07-19T05:38:16.801Z,450
2017-07-19T05:39:16.794Z,420
2017-07-19T05:40:16.767Z,425
2017-07-19T05:41:17.045Z,445
2017-07-19T05:42:16.453Z,440
2017-07-19T05:43:16.714Z,445
2017-07-19T05:44:16.712Z,445
2017-07-19T05:45:16.687Z,445
2017-07-19T05:46:16.677Z,440
2017-07-19T05:47:16.668Z,440
2017-07-19T05:48:16.633Z,445
2017-07-19T05:49:16.619Z,455
2017-07-19T05:50:16.901Z,435
2017-07-19T05:51:16.890Z,445
2017-07-19T05:52:16.576Z,450
2017-07-19T05:53:16.851Z,450
2017-07-19T05:54:16.242Z,455
2017-07-19T05:55:16.867Z,455
2017-07-19T05:56:16.501Z,445
2017-07-19T05:57:16.793Z,450
2017-07-19T05:58:16.780Z,460
2017-07-19T05:59:16.462Z,465
2017-07-19T06:00:16.442Z,470
2017-07-19T06:01:16.755Z,465
2017-07-19T06:02:16.706Z,470
2017-07-19T06:03:16.700Z,475
2017-07-19T06:04:16.404Z,480
2017-07-19T06:05:16.703Z,480
2017-07-19T06:06:16.372Z,485
2017-07-19T06:07:16.639Z,495
2017-07-19T06:08:16.031Z,500
2017-07-19T06:09:16.622Z,500
2017-07-19T06:10:15.996Z,510
2017-07-19T06:11:16.275Z,515
2017-07-19T06:12:16.472Z,520
2017-07-19T06:13:16.245Z,525
2017-07-19T06:14:16.250Z,530
2017-07-19T06:15:16.784Z,540
2017-07-19T06:16:17.536Z,545
2017-07-19T06:17:18.097Z,555
2017-07-19T06:18:17.830Z,685
2017-07-19T06:19:16.493Z,890
2017-07-19T06:20:16.446Z,1030
2017-07-19T06:21:16.135Z,1035
2017-07-19T06:22:16.129Z,1055
2017-07-19T06:23:16.407Z,1040
2017-07-19T06:24:16.660Z,1050
2017-07-19T06:25:16.365Z,1055
2017-07-19T06:26:15.774Z,1080
2017-07-19T06:27:16.342Z,1055
2017-07-19T06:28:16.029Z,1065
2017-07-19T06:29:16.022Z,1095
2017-07-19T06:30:16.294Z,1075
2017-07-19T06:31:16.286Z,1095
2017-07-19T06:32:15.984Z,1070
2017-07-19T06:33:16.260Z,1110
2017-07-19T06:34:15.972Z,1090
2017-07-19T06:35:16.354Z,1110
2017-07-19T06:36:15.339Z,1130
2017-07-19T06:37:15.919Z,1160
2017-07-19T06:38:15.909Z,1145
2017-07-19T06:39:15.892Z,1145
2017-07-19T06:40:16.178Z,1160
2017-07-19T06:41:16.165Z,1180
2017-07-19T06:42:16.173Z,1175
2017-07-19T06:43:16.141Z,1190
2017-07-19T06:44:16.125Z,1210
2017-07-19T06:45:15.816Z,1260
2017-07-19T06:46:16.101Z,1270
2017-07-19T06:47:15.498Z,1270
2017-07-19T06:48:16.091Z,1235
2017-07-19T06:49:15.781Z,1265
2017-07-19T06:50:15.999Z,1280
2017-07-19T06:51:16.054Z,1275
2017-07-19T06:52:15.876Z,1255
2017-07-19T06:53:16.022Z,1240
2017-07-19T06:54:16.015Z,1240
2017-07-19T06:55:16.009Z,1255
2017-07-19T06:56:15.989Z,1230
2017-07-19T06:57:15.682Z,1215
2017-07-19T06:58:15.681Z,1205
2017-07-19T06:59:15.957Z,1210
2017-07-19T07:00:15.353Z,1190
2017-07-19T07:01:15.643Z,1145
2017-07-19T07:02:15.632Z,1165
2017-07-19T07:03:16.662Z,1145
2017-07-19T07:04:16.183Z,1095
2017-07-19T07:05:15.926Z,1065
2017-07-19T07:06:15.882Z,1040
2017-07-19T07:07:15.877Z,990
2017-07-19T07:08:14.973Z,955
2017-07-19T07:09:15.852Z,900
2017-07-19T07:10:15.551Z,880
2017-07-19T07:11:15.835Z,860
2017-07-19T07:12:15.821Z,850
2017-07-19T07:13:15.214Z,860
2017-07-19T07:14:15.527Z,870
2017-07-19T07:15:15.802Z,915
2017-07-19T07:16:15.202Z,1310
2017-07-19T07:17:15.476Z,1735
2017-07-19T07:18:15.286Z,1865
2017-07-19T07:19:15.757Z,1655
2017-07-19T07:20:15.842Z,1775
2017-07-19T07:21:15.341Z,1755
2017-07-19T07:22:15.762Z,1735
2017-07-19T07:23:15.228Z,1690
2017-07-19T07:24:15.701Z,1665
2017-07-19T07:25:15.397Z,1615
2017-07-19T07:26:15.394Z,1595
2017-07-19T07:27:15.379Z,1560
2017-07-19T07:28:15.071Z,1530
2017-07-19T07:29:15.359Z,1540
2017-07-19T07:30:15.409Z,1545
2017-07-19T07:31:15.644Z,1550
2017-07-19T07:32:15.648Z,1530
2017-07-19T07:33:15.623Z,1580
2017-07-19T07:34:15.625Z,1520
2017-07-19T07:35:15.312Z,1495
2017-07-19T07:36:15.604Z,1575
2017-07-19T07:37:15.617Z,1535
2017-07-19T07:38:15.278Z,1515
2017-07-19T07:39:15.019Z,1485
2017-07-19T07:40:15.574Z,1415
2017-07-19T07:41:14.968Z,1520
2017-07-19T07:42:15.254Z,1565
2017-07-19T07:43:15.251Z,1630
2017-07-19T07:44:15.527Z,1760
2017-07-19T07:45:15.230Z,1665
2017-07-19T07:46:15.513Z,1710
2017-07-19T07:47:15.509Z,1775
2017-07-19T07:48:15.512Z,1780
2017-07-19T07:49:15.507Z,1810
2017-07-19T07:50:15.498Z,1820
2017-07-19T07:51:15.478Z,1845
2017-07-19T07:52:15.488Z,1890
2017-07-19T07:53:15.490Z,1840
2017-07-19T07:54:15.167Z,1835
2017-07-19T07:55:15.459Z,1835
2017-07-19T07:56:15.447Z,1855
2017-07-19T07:57:15.169Z,1835
2017-07-19T07:58:15.139Z,1880
2017-07-19T07:59:15.438Z,1900
2017-07-19T08:00:15.427Z,1910
2017-07-19T08:01:15.421Z,1920
2017-07-19T08:02:15.409Z,1955
2017-07-19T08:03:15.403Z,1910
2017-07-19T08:04:14.512Z,1980
2017-07-19T08:05:15.099Z,1990
2017-07-19T08:06:15.393Z,2005
2017-07-19T08:07:15.386Z,2055
2017-07-19T08:08:15.376Z,2055
2017-07-19T08:09:15.071Z,2020
2017-07-19T08:10:15.680Z,2090
2017-07-19T08:11:15.605Z,2130
2017-07-19T08:12:15.516Z,2080
2017-07-19T08:13:15.360Z,2055
2017-07-19T08:14:15.352Z,2095
2017-07-19T08:15:15.047Z,2020
2017-07-19T08:16:15.341Z,2080
2017-07-19T08:17:15.781Z,2155
2017-07-19T08:18:15.078Z,2135
2017-07-19T08:19:15.352Z,2185
2017-07-19T08:20:15.077Z,2195
2017-07-19T08:21:15.315Z,2165
2017-07-19T08:22:15.029Z,2180
2017-07-19T08:23:15.020Z,2145
2017-07-19T08:24:15.327Z,2180
2017-07-19T08:25:15.019Z,2255
2017-07-19T08:26:15.014Z,2190
2017-07-19T08:27:15.300Z,2105
2017-07-19T08:28:15.007Z,2270
2017-07-19T08:29:15.293Z,2305
2017-07-19T08:30:15.290Z,2265
2017-07-19T08:31:15.290Z,2335
2017-07-19T08:32:15.287Z,2295
2017-07-19T08:33:14.984Z,2275
2017-07-19T08:34:14.688Z,2345
2017-07-19T08:35:15.283Z,2315
2017-07-19T08:36:15.278Z,2295
2017-07-19T08:37:14.975Z,2315
2017-07-19T08:38:14.988Z,2175
2017-07-19T08:39:15.031Z,2170
2017-07-19T08:40:14.967Z,2210
2017-07-19T08:41:15.267Z,2335
2017-07-19T08:42:15.271Z,2350
2017-07-19T08:43:15.261Z,2325
2017-07-19T08:44:15.261Z,2320
2017-07-19T08:45:14.961Z,2115
2017-07-19T08:46:14.961Z,2205
2017-07-19T08:47:14.968Z,2170
2017-07-19T08:48:14.967Z,2190
2017-07-19T08:49:15.247Z,2275
2017-07-19T08:50:15.315Z,2220
2017-07-19T08:51:15.250Z,2280
2017-07-19T08:52:15.254Z,2215
2017-07-19T08:53:15.277Z,1900
2017-07-19T08:54:15.242Z,2105
2017-07-19T08:55:15.337Z,2060
2017-07-19T08:56:14.948Z,1920
2017-07-19T08:57:15.240Z,2090
2017-07-19T08:58:14.938Z,1965
2017-07-19T08:59:15.238Z,2125
2017-07-19T09:00:15.226Z,2040
2017-07-19T09:01:14.948Z,1960
2017-07-19T09:02:14.938Z,1975
2017-07-19T09:03:15.231Z,1920
2017-07-19T09:04:14.938Z,1625
2017-07-19T09:05:15.226Z,2080
2017-07-19T09:06:15.223Z,1605
2017-07-19T09:07:14.931Z,1680
2017-07-19T09:08:15.214Z,1830
2017-07-19T09:09:15.211Z,2145
2017-07-19T09:10:15.248Z,2100
2017-07-19T09:11:15.215Z,2040
2017-07-19T09:12:15.425Z,2115
2017-07-19T09:13:15.025Z,2255
2017-07-19T09:14:15.260Z,2085
2017-07-19T09:15:15.205Z,2015
2017-07-19T09:16:14.902Z,2135
2017-07-19T09:17:15.210Z,2515
2017-07-19T09:18:15.197Z,2290
2017-07-19T09:19:15.197Z,2375
2017-07-19T09:20:15.199Z,2170
2017-07-19T09:21:15.346Z,2115
2017-07-19T09:22:17.484Z,2185
2017-07-19T09:23:15.259Z,2390
2017-07-19T09:24:15.806Z,2525
2017-07-19T09:25:15.005Z,2520
2017-07-19T09:26:15.739Z,2320
2017-07-19T09:27:15.268Z,2440
2017-07-19T09:28:15.874Z,2525
2017-07-19T09:29:15.341Z,2560
2017-07-19T09:30:14.893Z,2600
2017-07-19T09:31:15.102Z,2530
2017-07-19T09:32:15.177Z,2540
2017-07-19T09:33:15.171Z,2625
2017-07-19T09:34:14.990Z,2520
2017-07-19T09:35:15.213Z,2340
2017-07-19T09:36:15.165Z,2340
2017-07-19T09:37:15.166Z,2585
2017-07-19T09:38:15.173Z,2485
2017-07-19T09:39:14.978Z,2395
2017-07-19T09:40:15.178Z,2535
2017-07-19T09:41:14.873Z,2630
2017-07-19T09:42:14.906Z,2695
2017-07-19T09:43:15.166Z,2600
2017-07-19T09:44:15.167Z,2530
2017-07-19T09:45:15.169Z,2695
2017-07-19T09:46:14.889Z,2800
2017-07-19T09:47:15.169Z,2825
2017-07-19T09:48:15.166Z,2710
2017-07-19T09:49:15.169Z,2615
2017-07-19T09:50:15.171Z,2640
2017-07-19T09:51:14.869Z,2580
2017-07-19T09:52:14.878Z,2535
2017-07-19T09:53:15.173Z,2590
2017-07-19T09:54:14.872Z,2640
2017-07-19T09:55:14.883Z,2610
2017-07-19T09:56:14.602Z,2600
2017-07-19T09:57:15.176Z,2610
2017-07-19T09:58:15.180Z,2650
2017-07-19T09:59:15.178Z,2610
2017-07-19T10:00:15.184Z,2590
2017-07-19T10:01:15.179Z,2610
2017-07-19T10:02:15.181Z,2570
2017-07-19T10:03:15.187Z,2660
2017-07-19T10:04:14.895Z,2730
2017-07-19T10:05:15.183Z,2770
2017-07-19T10:06:15.196Z,2750
2017-07-19T10:07:15.186Z,2655
2017-07-19T10:08:14.606Z,2510
2017-07-19T10:09:15.194Z,2600
2017-07-19T10:10:15.495Z,2515
2017-07-19T10:11:15.457Z,2440
2017-07-19T10:12:16.195Z,2440
2017-07-19T10:13:16.261Z,2280
2017-07-19T10:14:15.477Z,2425
2017-07-19T10:15:14.992Z,2585
2017-07-19T10:16:15.207Z,2600
2017-07-19T10:17:15.207Z,2585
2017-07-19T10:18:15.213Z,2595
2017-07-19T10:19:15.212Z,2735
2017-07-19T10:20:14.628Z,2785
2017-07-19T10:21:15.216Z,2705
2017-07-19T10:22:15.222Z,2645
2017-07-19T10:23:15.301Z,2720
2017-07-19T10:24:15.224Z,2810
2017-07-19T10:25:14.922Z,2840
2017-07-19T10:26:15.216Z,2770
2017-07-19T10:27:14.931Z,2685
2017-07-19T10:28:15.222Z,2725
2017-07-19T10:29:15.069Z,2825
2017-07-19T10:30:15.417Z,2670
2017-07-19T10:31:14.934Z,2680
2017-07-19T10:32:14.934Z,2785
2017-07-19T10:33:14.942Z,2025
2017-07-19T10:34:15.057Z,1045
2017-07-19T10:35:14.943Z,850
2017-07-19T10:36:14.939Z,860
2017-07-19T10:37:15.242Z,1235
2017-07-19T10:38:14.947Z,2265
2017-07-19T10:39:15.243Z,2800
2017-07-19T10:40:14.751Z,2820
2017-07-19T10:41:15.243Z,2835
2017-07-19T10:42:15.250Z,2795
2017-07-19T10:43:15.244Z,2770
2017-07-19T10:44:15.242Z,2765
2017-07-19T10:45:15.255Z,2750
2017-07-19T10:46:14.949Z,2765
2017-07-19T10:47:14.965Z,960
2017-07-19T10:48:15.263Z,2875
2017-07-19T10:49:15.252Z,2915
2017-07-19T10:50:14.953Z,2915
2017-07-19T10:51:15.255Z,1410
2017-07-19T10:52:15.257Z,3045
2017-07-19T10:53:15.255Z,2970
2017-07-19T10:54:15.263Z,2915
2017-07-19T10:55:15.360Z,2895
2017-07-19T10:56:14.969Z,2875
2017-07-19T10:57:15.275Z,2850
2017-07-19T10:58:15.266Z,2865
2017-07-19T10:59:15.332Z,2700
2017-07-19T11:00:15.266Z,2910
2017-07-19T11:01:15.278Z,1150
2017-07-19T11:02:15.009Z,2765
2017-07-19T11:03:15.280Z,2710
2017-07-19T11:04:15.280Z,2815
2017-07-19T11:05:15.286Z,2825
2017-07-19T11:06:15.024Z,2910
2017-07-19T11:07:15.295Z,2765
2017-07-19T11:08:15.300Z,2635
2017-07-19T11:09:15.293Z,2790
2017-07-19T11:10:15.297Z,2845
2017-07-19T11:11:15.293Z,2835
2017-07-19T11:12:15.321Z,2940
2017-07-19T11:13:15.311Z,2995
2017-07-19T11:14:15.008Z,2840
2017-07-19T11:15:15.076Z,2760
2017-07-19T11:16:14.769Z,2720
2017-07-19T11:17:15.324Z,2725
2017-07-19T11:18:15.315Z,2745
2017-07-19T11:19:15.325Z,2760
2017-07-19T11:20:15.065Z,2755
2017-07-19T11:21:15.035Z,2835
2017-07-19T11:22:15.331Z,2925
2017-07-19T11:23:15.336Z,2905
2017-07-19T11:24:15.345Z,2895
2017-07-19T11:25:15.051Z,2745
2017-07-19T11:26:15.048Z,2660
2017-07-19T11:27:15.345Z,2690
2017-07-19T11:28:14.866Z,2740
2017-07-19T11:29:15.054Z,2785
2017-07-19T11:30:15.362Z,2795
2017-07-19T11:31:15.360Z,2820
2017-07-19T11:32:15.375Z,2710
2017-07-19T11:33:15.367Z,2805
2017-07-19T11:34:15.074Z,2765
2017-07-19T11:35:15.375Z,2810
2017-07-19T11:36:15.078Z,2890
2017-07-19T11:37:15.379Z,2895
2017-07-19T11:38:15.096Z,2945
2017-07-19T11:39:15.390Z,2965
2017-07-19T11:40:15.402Z,3105
2017-07-19T11:41:15.400Z,3015
2017-07-19T11:42:15.393Z,2850
2017-07-19T11:43:15.107Z,2855
2017-07-19T11:44:15.412Z,2825
2017-07-19T11:45:15.416Z,2675
2017-07-19T11:46:15.120Z,2625
2017-07-19T11:47:15.417Z,2625
2017-07-19T11:48:15.121Z,2635
2017-07-19T11:49:15.128Z,2635
2017-07-19T11:50:15.128Z,2660
2017-07-19T11:51:15.435Z,2735
2017-07-19T11:52:15.433Z,2610
2017-07-19T11:53:15.461Z,2700
2017-07-19T11:54:15.437Z,2765
2017-07-19T11:55:15.148Z,2800
2017-07-19T11:56:15.468Z,2820
2017-07-19T11:57:15.455Z,2845
2017-07-19T11:58:14.878Z,2970
2017-07-19T11:59:15.468Z,2995
2017-07-19T12:00:15.471Z,2845
2017-07-19T12:01:15.168Z,2730
2017-07-19T12:02:15.175Z,2700
2017-07-19T12:03:15.174Z,2730
2017-07-19T12:04:15.477Z,2830
2017-07-19T12:05:15.478Z,2875
2017-07-19T12:06:15.481Z,2910
2017-07-19T12:07:15.479Z,2860
2017-07-19T12:08:15.501Z,2790
2017-07-19T12:09:15.312Z,2815
2017-07-19T12:10:15.923Z,2805
2017-07-19T12:11:17.522Z,2630
2017-07-19T12:12:16.578Z,2685
2017-07-19T12:13:15.725Z,2860
2017-07-19T12:14:15.053Z,2925
2017-07-19T12:15:15.659Z,2920
2017-07-19T12:16:15.948Z,2945
2017-07-19T12:17:16.033Z,2935
2017-07-19T12:18:15.429Z,2890
2017-07-19T12:19:14.967Z,2955
2017-07-19T12:20:14.757Z,2970
2017-07-19T12:21:15.556Z,2980
2017-07-19T12:22:15.542Z,2915
2017-07-19T12:23:15.545Z,2870
2017-07-19T12:24:15.543Z,2860
2017-07-19T12:25:14.961Z,2800
2017-07-19T12:26:15.350Z,2785
2017-07-19T12:27:15.546Z,2845
2017-07-19T12:28:15.441Z,2710
2017-07-19T12:29:15.347Z,2155
2017-07-19T12:30:15.604Z,2745
2017-07-19T12:31:15.282Z,2705
2017-07-19T12:32:14.997Z,2675
2017-07-19T12:33:15.291Z,2570
2017-07-19T12:34:15.598Z,2325
2017-07-19T12:35:15.613Z,2185
2017-07-19T12:36:15.600Z,1935
2017-07-19T12:37:15.601Z,2135
2017-07-19T12:38:15.586Z,1545
2017-07-19T12:39:15.597Z,1380
2017-07-19T12:40:15.594Z,1925
2017-07-19T12:41:15.301Z,1800
2017-07-19T12:42:15.602Z,1775
2017-07-19T12:43:15.362Z,1935
2017-07-19T12:44:15.745Z,2265
2017-07-19T12:45:15.658Z,2370
2017-07-19T12:46:15.619Z,2985
2017-07-19T12:47:15.635Z,3090
2017-07-19T12:48:15.602Z,2930
2017-07-19T12:49:15.636Z,3285
2017-07-19T12:50:15.617Z,3245
2017-07-19T12:51:15.622Z,3125
2017-07-19T12:52:15.623Z,3135
2017-07-19T12:53:15.659Z,3115
2017-07-19T12:54:15.635Z,3280
2017-07-19T12:55:15.325Z,3085
2017-07-19T12:56:15.623Z,2825
2017-07-19T12:57:15.363Z,2720
2017-07-19T12:58:15.543Z,2915
2017-07-19T12:59:15.635Z,3000
2017-07-19T13:00:16.200Z,3085
2017-07-19T13:01:15.990Z,3155
2017-07-19T13:02:16.192Z,3080
2017-07-19T13:03:16.304Z,3080
2017-07-19T13:04:15.652Z,3135
2017-07-19T13:05:15.664Z,3065
2017-07-19T13:06:15.667Z,2995
2017-07-19T13:07:15.681Z,2630
2017-07-19T13:08:15.664Z,2260
2017-07-19T13:09:15.717Z,2330
2017-07-19T13:10:15.657Z,2650
2017-07-19T13:11:15.774Z,2590
2017-07-19T13:12:15.717Z,2925
2017-07-19T13:13:15.628Z,3000
2017-07-19T13:14:15.572Z,3025
2017-07-19T13:15:15.693Z,2945
2017-07-19T13:16:15.699Z,2745
2017-07-19T13:17:15.702Z,2830
2017-07-19T13:18:15.704Z,3080
2017-07-19T13:19:15.513Z,2985
2017-07-19T13:20:15.672Z,3020
2017-07-19T13:21:15.709Z,3005
2017-07-19T13:22:15.718Z,3055
2017-07-19T13:23:15.719Z,2740
2017-07-19T13:24:15.718Z,2865
2017-07-19T13:25:15.733Z,2845
2017-07-19T13:26:15.733Z,2770
2017-07-19T13:27:15.735Z,2700
2017-07-19T13:28:15.741Z,2760
2017-07-19T13:29:15.752Z,2635
2017-07-19T13:30:15.445Z,2675
2017-07-19T13:31:15.759Z,2775
2017-07-19T13:32:15.754Z,2935
2017-07-19T13:33:15.763Z,2610
2017-07-19T13:34:15.768Z,2510
2017-07-19T13:35:15.769Z,2665
2017-07-19T13:36:15.469Z,2645
2017-07-19T13:37:15.894Z,2535
2017-07-19T13:38:15.181Z,2650
2017-07-19T13:39:15.784Z,2630
2017-07-19T13:40:15.491Z,2705
2017-07-19T13:41:15.491Z,2715
2017-07-19T13:42:15.799Z,2615
2017-07-19T13:43:15.800Z,2675
2017-07-19T13:44:15.507Z,2650
2017-07-19T13:45:15.209Z,1920
2017-07-19T13:46:15.508Z,2180